createdAt,value
2022-12-08T00:01:13.211Z,101055.72
2022-12-08T00:03:39.753Z,101060.31
2022-12-08T00:06:08.066Z,101044.22
2022-12-08T00:08:34.747Z,101037.16
2022-12-08T00:11:01.085Z,101040.22
2022-12-08T00:13:27.500Z,101030.13
2022-12-08T00:15:59.362Z,101026.16
2022-12-08T00:18:25.672Z,101018.13
2022-12-08T00:20:59.481Z,101016.06
2022-12-08T00:23:26.316Z,100991.69
2022-12-08T00:25:53.077Z,101008.09
2022-12-08T00:28:19.412Z,101002.25
2022-12-08T00:30:45.725Z,100996.81
2022-12-08T00:33:12.321Z,100979.28
2022-12-08T00:35:43.061Z,100984.81
2022-12-08T00:38:09.830Z,100967.09
2022-12-08T00:40:36.128Z,100977.38
2022-12-08T00:43:02.483Z,100968.41
2022-12-08T00:45:28.914Z,100969.75
2022-12-08T00:47:55.299Z,100955.63
2022-12-08T00:50:21.591Z,100964.59
2022-12-08T00:52:47.921Z,100960.34
2022-12-08T00:55:14.185Z,100959.41
2022-12-08T00:57:40.572Z,100948.88
2022-12-08T01:00:07.662Z,100951.00
2022-12-08T01:02:34.212Z,100962.53
2022-12-08T01:05:00.697Z,100953.13
2022-12-08T01:07:27.724Z,100955.94
2022-12-08T01:09:54.041Z,100953.06
2022-12-08T01:12:20.410Z,100951.44
2022-12-08T01:14:46.709Z,100946.78
2022-12-08T01:17:13.110Z,100953.44
2022-12-08T01:19:39.388Z,100956.69
2022-12-08T01:22:05.764Z,100937.69
2022-12-08T01:24:32.207Z,100949.41
2022-12-08T01:26:58.534Z,100958.69
2022-12-08T01:29:26.299Z,100947.06
2022-12-08T01:31:52.682Z,100935.88
2022-12-08T01:34:18.989Z,100943.56
2022-12-08T01:36:45.527Z,100934.84
2022-12-08T01:39:17.215Z,100930.81
2022-12-08T01:41:44.655Z,100947.19
2022-12-08T01:44:10.960Z,100935.72
2022-12-08T01:46:42.523Z,100938.97
2022-12-08T01:49:14.561Z,100929.41
2022-12-08T01:51:47.222Z,100926.84
2022-12-08T01:54:13.958Z,100922.63
2022-12-08T01:57:07.285Z,100925.75
2022-12-08T01:59:41.279Z,100924.25
2022-12-08T02:02:09.747Z,100921.38
2022-12-08T02:04:36.209Z,100920.56
2022-12-08T02:07:07.983Z,100917.84
2022-12-08T02:09:36.547Z,100921.28
2022-12-08T02:12:02.960Z,100917.56
2022-12-08T02:14:29.264Z,100914.81
2022-12-08T02:17:04.277Z,100914.69
2022-12-08T02:19:54.577Z,100911.91
2022-12-08T02:23:04.250Z,100914.22
2022-12-08T02:25:55.284Z,100913.69
2022-12-08T02:28:48.767Z,100908.25
2022-12-08T02:31:47.651Z,100907.47
2022-12-08T02:34:28.413Z,100905.03
2022-12-08T02:37:08.006Z,100900.03
2022-12-08T02:39:59.958Z,100894.38
2022-12-08T02:42:33.028Z,100874.97
2022-12-08T02:45:22.566Z,100890.38
2022-12-08T02:47:50.989Z,100882.75
2022-12-08T02:50:17.947Z,100876.63
2022-12-08T02:52:48.073Z,100882.81
2022-12-08T02:55:27.094Z,100875.06
2022-12-08T02:58:14.700Z,100875.06
2022-12-08T03:00:54.099Z,100861.59
2022-12-08T03:03:41.596Z,100856.22
2022-12-08T03:06:29.380Z,100863.69
2022-12-08T03:09:07.114Z,100867.22
2022-12-08T03:11:47.324Z,100865.25
2022-12-08T03:14:17.128Z,100863.00
2022-12-08T03:16:48.467Z,100848.59
2022-12-08T03:19:41.985Z,100852.63
2022-12-08T03:22:09.317Z,100839.84
2022-12-08T03:24:41.604Z,100836.31
2022-12-08T03:27:14.641Z,100837.91
2022-12-08T03:29:41.178Z,100833.88
2022-12-08T03:32:14.438Z,100830.94
2022-12-08T03:34:46.062Z,100835.69
2022-12-08T03:37:13.377Z,100830.81
2022-12-08T03:39:40.052Z,100833.41
2022-12-08T03:42:06.530Z,100825.19
2022-12-08T03:44:32.884Z,100806.41
2022-12-08T03:46:59.219Z,100819.69
2022-12-08T03:49:25.786Z,100805.91
2022-12-08T03:51:52.167Z,100817.75
2022-12-08T03:54:18.436Z,100822.78
2022-12-08T03:56:44.816Z,100832.16
2022-12-08T03:59:11.464Z,100825.03
2022-12-08T04:01:37.938Z,100813.56
2022-12-08T04:04:04.461Z,100818.91
2022-12-08T04:06:30.792Z,100812.59
2022-12-08T04:08:57.233Z,100806.75
2022-12-08T04:11:23.709Z,100801.56
2022-12-08T04:13:50.159Z,100796.41
2022-12-08T04:16:19.745Z,100795.91
2022-12-08T04:18:46.510Z,100798.34
2022-12-08T04:21:13.249Z,100803.38
2022-12-08T04:23:39.731Z,100802.38
2022-12-08T04:26:06.362Z,100801.78
2022-12-08T04:28:33.030Z,100802.56
2022-12-08T04:30:59.803Z,100805.81
2022-12-08T04:33:26.499Z,100805.16
2022-12-08T04:35:52.913Z,100793.31
2022-12-08T04:38:19.400Z,100799.97
2022-12-08T04:40:45.839Z,100794.81
2022-12-08T04:43:12.239Z,100807.91
2022-12-08T04:45:42.557Z,100798.38
2022-12-08T04:48:10.107Z,100798.38
2022-12-08T04:50:40.014Z,100786.38
2022-12-08T04:53:06.368Z,100793.81
2022-12-08T04:55:32.654Z,100795.13
2022-12-08T04:57:59.042Z,100801.13
2022-12-08T05:00:25.433Z,100797.72
2022-12-08T05:02:51.872Z,100796.09
2022-12-08T05:05:18.328Z,100803.88
2022-12-08T05:07:44.848Z,100792.22
2022-12-08T05:10:11.225Z,100794.00
2022-12-08T05:12:37.669Z,100805.66
2022-12-08T05:15:04.459Z,100793.81
2022-12-08T05:17:30.824Z,100798.19
2022-12-08T05:19:57.130Z,100801.59
2022-12-08T05:22:23.427Z,100795.44
2022-12-08T05:24:49.745Z,100799.34
2022-12-08T05:27:16.091Z,100796.09
2022-12-08T05:29:42.378Z,100800.78
2022-12-08T05:32:08.790Z,100795.44
2022-12-08T05:34:35.193Z,100786.69
2022-12-08T05:37:01.546Z,100792.66
2022-12-08T05:39:27.929Z,100791.84
2022-12-08T05:41:54.245Z,100792.00
2022-12-08T05:44:20.609Z,100784.88
2022-12-08T05:46:46.884Z,100783.13
2022-12-08T05:49:13.323Z,100779.38
2022-12-08T05:51:39.669Z,100783.91
2022-12-08T05:54:06.009Z,100773.72
2022-12-08T05:56:32.330Z,100783.13
2022-12-08T05:58:58.724Z,100777.94
2022-12-08T06:01:26.569Z,100778.59
2022-12-08T06:03:53.689Z,100772.75
2022-12-08T06:06:20.830Z,100778.75
2022-12-08T06:08:47.397Z,100756.88
2022-12-08T06:11:25.248Z,100761.75
2022-12-08T06:13:52.074Z,100760.91
2022-12-08T06:16:19.150Z,100768.84
2022-12-08T06:18:46.595Z,100763.66
2022-12-08T06:21:14.424Z,100756.72
2022-12-08T06:23:41.115Z,100757.34
2022-12-08T06:26:14.011Z,100762.69
2022-12-08T06:28:41.642Z,100758.31
2022-12-08T06:31:15.099Z,100756.84
2022-12-08T06:33:42.015Z,100761.22
2022-12-08T06:36:08.611Z,100760.59
2022-12-08T06:38:38.122Z,100760.72
2022-12-08T06:41:07.268Z,100745.69
2022-12-08T06:43:33.782Z,100748.75
2022-12-08T06:46:01.586Z,100756.69
2022-12-08T06:48:28.231Z,100759.44
2022-12-08T06:50:54.710Z,100760.38
2022-12-08T06:53:21.145Z,100751.47
2022-12-08T06:55:59.340Z,100761.66
2022-12-08T06:58:26.325Z,100764.59
2022-12-08T07:00:52.723Z,100758.75
2022-12-08T07:03:19.278Z,100763.56
2022-12-08T07:05:45.702Z,100766.31
2022-12-08T07:08:12.176Z,100771.00
2022-12-08T07:10:38.819Z,100771.31
2022-12-08T07:13:05.276Z,100775.97
2022-12-08T07:15:31.732Z,100769.84
2022-12-08T07:18:00.031Z,100774.19
2022-12-08T07:20:27.088Z,100775.66
2022-12-08T07:22:53.715Z,100781.28
2022-12-08T07:25:20.414Z,100765.44
2022-12-08T07:27:47.452Z,100769.50
2022-12-08T07:30:14.117Z,100778.22
2022-12-08T07:32:40.779Z,100780.63
2022-12-08T07:35:08.289Z,100778.53
2022-12-08T07:37:35.399Z,100771.75
2022-12-08T07:40:02.244Z,100773.19
2022-12-08T07:42:28.961Z,100771.41
2022-12-08T07:44:55.327Z,100785.50
2022-12-08T07:47:21.851Z,100784.53
2022-12-08T07:49:48.169Z,100782.78
2022-12-08T07:52:14.573Z,100781.28
2022-12-08T07:54:40.822Z,100786.03
2022-12-08T07:57:07.192Z,100794.59
2022-12-08T07:59:33.451Z,100796.03
2022-12-08T08:02:21.343Z,100780.19
2022-12-08T08:04:50.364Z,100799.28
2022-12-08T08:07:16.803Z,100795.59
2022-12-08T08:09:43.069Z,100799.81
2022-12-08T08:12:30.076Z,100791.38
2022-12-08T08:14:56.517Z,100803.03
2022-12-08T08:17:23.002Z,100806.13
2022-12-08T08:19:49.412Z,100805.00
2022-12-08T08:22:15.708Z,100804.84
2022-12-08T08:24:45.102Z,100809.88
2022-12-08T08:27:12.348Z,100806.78
2022-12-08T08:29:38.763Z,100809.88
2022-12-08T08:32:05.138Z,100812.00
2022-12-08T08:34:31.621Z,100808.47
2022-12-08T08:36:58.047Z,100811.53
2022-12-08T08:39:24.447Z,100804.09
2022-12-08T08:41:50.755Z,100811.06
2022-12-08T08:44:17.460Z,100802.00
2022-12-08T08:46:44.302Z,100811.53
2022-12-08T08:49:10.769Z,100811.41
2022-12-08T08:51:37.065Z,100801.53
2022-12-08T08:54:03.947Z,100798.81
2022-12-08T08:56:30.305Z,100798.47
2022-12-08T08:58:56.586Z,100805.78
2022-12-08T09:01:25.327Z,100795.56
2022-12-08T09:03:52.321Z,100810.34
2022-12-08T09:06:19.726Z,100810.81
2022-12-08T09:08:46.970Z,100804.00
2022-12-08T09:11:13.763Z,100806.78
2022-12-08T09:13:40.561Z,100803.38
2022-12-08T09:16:09.156Z,100799.34
2022-12-08T09:18:35.560Z,100810.34
2022-12-08T09:21:06.125Z,100808.25
2022-12-08T09:23:35.641Z,100809.72
2022-12-08T09:26:03.936Z,100806.13
2022-12-08T09:28:30.745Z,100802.91
2022-12-08T09:30:57.538Z,100808.94
2022-12-08T09:33:23.978Z,100812.31
2022-12-08T09:35:50.196Z,100817.19
2022-12-08T09:38:16.534Z,100816.22
2022-12-08T09:40:49.108Z,100814.91
2022-12-08T09:43:40.598Z,100817.19
2022-12-08T09:46:10.081Z,100805.19
2022-12-08T09:48:42.113Z,100803.75
2022-12-08T09:51:10.827Z,100809.28
2022-12-08T09:53:50.259Z,100807.47
2022-12-08T09:56:22.979Z,100806.69
2022-12-08T09:58:53.576Z,100801.66
2022-12-08T10:01:22.315Z,100794.81
2022-12-08T10:03:49.485Z,100802.59
2022-12-08T10:06:31.064Z,100797.41
2022-12-08T10:09:12.784Z,100798.25
2022-12-08T10:12:04.098Z,100796.31
2022-12-08T10:14:38.646Z,100794.50
2022-12-08T10:17:15.951Z,100797.75
2022-12-08T10:19:43.834Z,100790.63
2022-12-08T10:22:19.968Z,100791.41
2022-12-08T10:24:52.969Z,100789.66
2022-12-08T10:27:20.181Z,100784.78
2022-12-08T10:29:46.578Z,100779.44
2022-12-08T10:32:18.435Z,100770.84
2022-12-08T10:35:01.433Z,100777.66
2022-12-08T10:37:28.442Z,100775.84
2022-12-08T10:40:14.024Z,100770.19
2022-12-08T10:42:46.137Z,100773.44
2022-12-08T10:45:26.407Z,100771.47
2022-12-08T10:48:12.735Z,100763.50
2022-12-08T10:50:52.593Z,100758.69
2022-12-08T10:53:31.124Z,100774.38
2022-12-08T10:56:03.472Z,100754.28
2022-12-08T10:58:35.973Z,100747.13
2022-12-08T11:01:23.952Z,100753.94
2022-12-08T11:03:52.243Z,100750.56
2022-12-08T11:06:30.398Z,100747.47
2022-12-08T11:09:07.481Z,100749.72
2022-12-08T11:11:45.967Z,100753.16
2022-12-08T11:14:32.196Z,100755.56
2022-12-08T11:17:23.605Z,100752.97
2022-12-08T11:20:08.893Z,100749.06
2022-12-08T11:22:39.714Z,100738.69
2022-12-08T11:25:08.822Z,100742.56
2022-12-08T11:27:37.892Z,100739.63
2022-12-08T11:30:15.224Z,100741.88
2022-12-08T11:32:44.208Z,100743.69
2022-12-08T11:35:21.115Z,100743.38
2022-12-08T11:37:47.719Z,100729.59
2022-12-08T11:40:25.095Z,100733.16
2022-12-08T11:43:16.301Z,100734.44
2022-12-08T11:45:43.427Z,100737.69
2022-12-08T11:48:27.206Z,100739.13
2022-12-08T11:51:03.013Z,100736.06
2022-12-08T11:54:04.117Z,100739.94
2022-12-08T11:56:36.771Z,100734.75
2022-12-08T11:59:18.746Z,100733.28
2022-12-08T12:01:45.217Z,100733.91
2022-12-08T12:04:37.332Z,100741.84
2022-12-08T12:07:31.344Z,100744.09
2022-12-08T12:10:15.768Z,100742.78
2022-12-08T12:13:10.026Z,100734.66
2022-12-08T12:16:10.678Z,100738.69
2022-12-08T12:18:43.449Z,100733.66
2022-12-08T12:21:20.901Z,100738.38
2022-12-08T12:24:05.432Z,100728.78
2022-12-08T12:26:49.143Z,100723.44
2022-12-08T12:29:25.934Z,100711.94
2022-12-08T12:31:56.887Z,100711.59
2022-12-08T12:34:29.639Z,100716.97
2022-12-08T12:37:03.555Z,100709.50
2022-12-08T12:39:33.692Z,100705.00
2022-12-08T12:42:02.716Z,100718.78
2022-12-08T12:44:29.036Z,100717.50
2022-12-08T12:46:55.281Z,100705.84
2022-12-08T12:49:39.978Z,100705.19
2022-12-08T12:52:15.406Z,100703.91
2022-12-08T12:55:10.590Z,100694.84
2022-12-08T12:57:52.640Z,100694.53
2022-12-08T13:00:21.878Z,100709.00
2022-12-08T13:02:50.442Z,100701.53
2022-12-08T13:05:24.689Z,100701.38
2022-12-08T13:07:56.432Z,100697.47
2022-12-08T13:10:31.873Z,100696.44
2022-12-08T13:13:05.801Z,100695.13
2022-12-08T13:15:41.275Z,100683.28
2022-12-08T13:18:19.731Z,100700.78
2022-12-08T13:20:50.656Z,100684.91
2022-12-08T13:23:29.948Z,100700.28
2022-12-08T13:26:17.303Z,100703.00
2022-12-08T13:28:58.896Z,100691.66
2022-12-08T13:31:50.087Z,100701.00
2022-12-08T13:34:19.585Z,100683.34
2022-12-08T13:37:03.643Z,100674.75
2022-12-08T13:39:53.420Z,100686.56
2022-12-08T13:42:29.404Z,100692.28
2022-12-08T13:57:12.012Z,100679.84
2022-12-08T13:59:44.682Z,100687.81
2022-12-08T14:02:26.308Z,100682.66
2022-12-08T14:05:17.471Z,100678.97
2022-12-08T14:07:42.033Z,100684.66
2022-12-08T14:10:13.419Z,100688.56
2022-12-08T14:12:43.962Z,100692.47
2022-12-08T14:15:14.173Z,100691.81
2022-12-08T14:17:41.296Z,100692.16
2022-12-08T14:20:13.398Z,100682.78
2022-12-08T14:22:40.886Z,100690.38
2022-12-08T14:25:13.661Z,100680.50
2022-12-08T14:27:40.212Z,100680.84
2022-12-08T14:30:12.434Z,100676.16
2022-12-08T14:32:41.854Z,100669.50
2022-12-08T14:35:08.368Z,100666.75
2022-12-08T14:37:38.670Z,100681.50
2022-12-08T14:40:36.976Z,100687.97
2022-12-08T14:43:09.020Z,100679.84
2022-12-08T14:45:46.440Z,100682.94
2022-12-08T14:48:19.373Z,100687.78
2022-12-08T14:50:55.587Z,100692.94
2022-12-08T14:53:22.520Z,100687.09
2022-12-08T14:55:49.882Z,100676.56
2022-12-08T14:58:28.465Z,100680.22
2022-12-08T15:00:57.856Z,100687.16
2022-12-08T15:03:27.211Z,100696.50
2022-12-08T15:05:57.741Z,100691.81
2022-12-08T15:08:24.545Z,100679.13
2022-12-08T15:11:17.643Z,100685.28
2022-12-08T15:13:46.102Z,100698.00
2022-12-08T15:16:31.677Z,100687.94
2022-12-08T15:19:02.387Z,100701.31
2022-12-08T15:21:36.868Z,100701.25
2022-12-08T15:24:03.531Z,100696.88
2022-12-08T15:26:38.999Z,100695.38
2022-12-08T15:29:26.587Z,100703.50
2022-12-08T15:31:57.445Z,100699.91
2022-12-08T15:34:24.546Z,100706.59
2022-12-08T15:36:53.021Z,100714.84
2022-12-08T15:39:35.322Z,100699.28
2022-12-08T15:42:03.445Z,100712.75
2022-12-08T15:44:29.802Z,100718.31
2022-12-08T15:46:56.191Z,100717.50
2022-12-08T15:49:23.920Z,100713.28
2022-12-08T15:51:55.681Z,100708.56
2022-12-08T15:54:26.997Z,100713.09
2022-12-08T15:57:18.698Z,100706.59
2022-12-08T15:59:41.751Z,100710.59
2022-12-08T16:02:10.813Z,100718.63
2022-12-08T16:05:18.327Z,100701.63
2022-12-08T16:07:26.927Z,100707.06
2022-12-08T16:09:53.930Z,100714.41
2022-12-08T16:12:26.067Z,100701.19
2022-12-08T16:17:40.497Z,100716.25
2022-12-08T16:20:15.725Z,100719.41
2022-12-08T16:23:13.053Z,100706.75
2022-12-08T16:25:36.313Z,100705.28
2022-12-08T16:28:51.675Z,100701.00
2022-12-08T16:30:59.231Z,100700.22
2022-12-08T16:33:25.621Z,100704.84
2022-12-08T16:35:51.965Z,100703.13
2022-12-08T16:38:18.341Z,100705.22
2022-12-08T16:40:46.511Z,100700.13
2022-12-08T16:43:12.895Z,100701.06
2022-12-08T16:45:45.026Z,100699.75
2022-12-08T16:48:13.921Z,100703.97
2022-12-08T16:50:45.128Z,100697.91
2022-12-08T16:53:12.774Z,100715.22
2022-12-08T16:55:39.673Z,100706.16
2022-12-08T16:58:06.564Z,100708.47
2022-12-08T17:00:34.073Z,100709.13
2022-12-08T17:03:00.411Z,100708.47
2022-12-08T17:05:27.334Z,100707.50
2022-12-08T17:07:54.131Z,100711.72
2022-12-08T17:10:23.881Z,100701.31
2022-12-08T17:12:51.131Z,100712.97
2022-12-08T17:15:20.623Z,100714.28
2022-12-08T17:17:47.644Z,100716.88
2022-12-08T17:20:20.054Z,100719.28
2022-12-08T17:22:47.325Z,100710.06
2022-12-08T17:25:13.757Z,100705.34
2022-12-08T17:27:40.026Z,100711.47
2022-12-08T17:30:08.276Z,100704.63
2022-12-08T17:32:34.928Z,100693.31
2022-12-08T17:35:01.269Z,100704.03
2022-12-08T17:37:27.629Z,100684.69
2022-12-08T17:39:53.969Z,100697.69
2022-12-08T17:42:20.339Z,100701.72
2022-12-08T17:44:46.721Z,100692.53
2022-12-08T17:47:13.103Z,100710.38
2022-12-08T17:49:39.444Z,100719.28
2022-12-08T17:52:06.124Z,100712.72
2022-12-08T17:54:32.556Z,100715.69
2022-12-08T17:56:58.979Z,100717.31
2022-12-08T17:59:27.074Z,100707.56
2022-12-08T18:01:54.173Z,100712.13
2022-12-08T18:04:20.796Z,100707.63
2022-12-08T18:06:47.286Z,100714.19
2022-12-08T18:09:14.224Z,100720.03
2022-12-08T18:11:41.658Z,100721.66
2022-12-08T18:14:08.677Z,100723.38
2022-12-08T18:16:37.784Z,100723.38
2022-12-08T18:19:04.969Z,100712.06
2022-12-08T18:21:31.394Z,100702.72
2022-12-08T18:23:57.634Z,100724.97
2022-12-08T18:26:24.048Z,100712.34
2022-12-08T18:28:50.321Z,100724.22
2022-12-08T18:31:20.922Z,100728.13
2022-12-08T18:33:48.409Z,100715.19
2022-12-08T18:36:18.147Z,100716.97
2022-12-08T18:38:45.187Z,100722.72
2022-12-08T18:41:14.740Z,100725.13
2022-12-08T18:43:41.214Z,100729.69
2022-12-08T18:46:10.687Z,100710.44
2022-12-08T18:48:39.271Z,100721.13
2022-12-08T18:51:13.922Z,100722.59
2022-12-08T18:53:40.758Z,100730.25
2022-12-08T18:56:08.531Z,100737.19
2022-12-08T18:58:35.427Z,100712.44
2022-12-08T19:01:01.885Z,100715.50
2022-12-08T19:03:28.270Z,100722.50
2022-12-08T19:06:04.933Z,100736.63
2022-12-08T19:08:31.773Z,100731.31
2022-12-08T19:10:58.836Z,100732.25
2022-12-08T19:13:25.458Z,100733.75
2022-12-08T19:15:51.946Z,100718.53
2022-12-08T19:18:18.507Z,100733.78
2022-12-08T19:20:44.854Z,100725.53
2022-12-08T19:23:14.622Z,100719.69
2022-12-08T19:25:41.471Z,100722.44
2022-12-08T19:28:07.825Z,100730.41
2022-12-08T19:30:34.089Z,100729.56
2022-12-08T19:33:00.430Z,100706.22
2022-12-08T19:35:26.760Z,100712.72
2022-12-08T19:37:53.105Z,100734.75
2022-12-08T19:40:19.453Z,100723.41
2022-12-08T19:42:45.855Z,100738.59
2022-12-08T19:45:17.141Z,100744.00
2022-12-08T19:47:43.761Z,100742.06
2022-12-08T19:50:12.307Z,100733.94
2022-12-08T19:52:38.650Z,100739.28
2022-12-08T19:55:05.282Z,100734.97
2022-12-08T19:57:31.675Z,100732.69
2022-12-08T19:59:57.958Z,100740.81
2022-12-08T20:02:24.402Z,100734.81
2022-12-08T20:04:50.938Z,100722.50
2022-12-08T20:07:17.201Z,100743.72
2022-12-08T20:09:43.536Z,100742.78
2022-12-08T20:12:10.024Z,100731.63
2022-12-08T20:14:39.226Z,100745.22
2022-12-08T20:17:07.862Z,100748.63
2022-12-08T20:19:34.130Z,100745.22
2022-12-08T20:22:00.484Z,100747.97
2022-12-08T20:24:27.042Z,100749.88
2022-12-08T20:26:53.415Z,100751.66
2022-12-08T20:29:19.734Z,100744.06
2022-12-08T20:31:46.224Z,100746.28
2022-12-08T20:34:17.380Z,100730.78
2022-12-08T20:36:44.457Z,100745.78
2022-12-08T20:39:16.377Z,100745.16
2022-12-08T20:41:44.230Z,100749.22
2022-12-08T20:44:10.934Z,100741.63
2022-12-08T20:46:37.854Z,100737.56
2022-12-08T20:49:05.148Z,100742.63
2022-12-08T20:51:33.256Z,100744.25
2022-12-08T20:53:59.621Z,100740.53
2022-12-08T20:56:26.395Z,100735.03
2022-12-08T20:58:53.927Z,100743.72
2022-12-08T21:01:22.519Z,100743.72
2022-12-08T21:03:50.378Z,100735.66
2022-12-08T21:06:21.597Z,100737.25
2022-12-08T21:08:48.460Z,100755.41
2022-12-08T21:11:14.888Z,100748.47
2022-12-08T21:13:41.563Z,100733.56
2022-12-08T21:16:12.274Z,100738.88
2022-12-08T21:18:39.916Z,100756.03
2022-12-08T21:21:15.109Z,100742.13
2022-12-08T21:23:42.831Z,100757.03
2022-12-08T21:26:18.709Z,100744.38
2022-12-08T21:28:45.286Z,100737.59
2022-12-08T21:31:15.101Z,100753.31
2022-12-08T21:33:42.301Z,100735.53
2022-12-08T21:36:13.140Z,100739.72
2022-12-08T21:38:40.543Z,100736.47
2022-12-08T21:41:12.920Z,100744.41
2022-12-08T21:43:39.777Z,100734.22
2022-12-08T21:46:06.247Z,100747.19
2022-12-08T21:48:32.906Z,100753.16
2022-12-08T21:51:04.471Z,100742.94
2022-12-08T21:53:31.101Z,100730.63
2022-12-08T21:55:57.418Z,100744.25
2022-12-08T21:58:23.858Z,100747.34
2022-12-08T22:00:50.311Z,100749.91
2022-12-08T22:03:17.146Z,100734.00
2022-12-08T22:05:43.744Z,100746.03
2022-12-08T22:08:10.228Z,100755.59
2022-12-08T22:10:36.901Z,100756.69
2022-12-08T22:13:03.355Z,100754.78
2022-12-08T22:15:29.874Z,100752.69
2022-12-08T22:17:56.532Z,100757.22
2022-12-08T22:20:23.062Z,100758.53
2022-12-08T22:22:49.583Z,100741.84
2022-12-08T22:25:16.152Z,100753.34
2022-12-08T22:27:42.673Z,100752.25
2022-12-08T22:30:10.419Z,100756.94
2022-12-08T22:32:37.768Z,100761.31
2022-12-08T22:35:04.376Z,100752.84
2022-12-08T22:37:30.808Z,100750.09
2022-12-08T22:39:57.064Z,100762.59
2022-12-08T22:42:23.441Z,100755.13
2022-12-08T22:44:49.733Z,100753.03
2022-12-08T22:47:16.084Z,100741.84
2022-12-08T22:49:42.360Z,100757.25
2022-12-08T22:52:08.754Z,100746.84
2022-12-08T22:54:35.279Z,100754.81
2022-12-08T22:57:01.611Z,100747.84
2022-12-08T22:59:28.444Z,100758.38
2022-12-08T23:01:54.803Z,100742.66
2022-12-08T23:04:21.402Z,100743.13
2022-12-08T23:06:47.827Z,100740.22
2022-12-08T23:09:14.213Z,100750.91
2022-12-08T23:11:40.816Z,100738.78
2022-12-08T23:14:07.122Z,100747.38
2022-12-08T23:16:33.735Z,100736.19
2022-12-08T23:19:00.228Z,100734.56
2022-12-08T23:21:26.536Z,100751.75
2022-12-08T23:23:52.993Z,100742.31
2022-12-08T23:26:25.760Z,100751.09
2022-12-08T23:28:53.193Z,100747.19
2022-12-08T23:31:20.459Z,100748.00
2022-12-08T23:33:47.097Z,100734.88
2022-12-08T23:36:14.448Z,100747.00
2022-12-08T23:38:41.765Z,100743.63
2022-12-08T23:41:10.474Z,100735.53
2022-12-08T23:43:36.941Z,100728.88
2022-12-08T23:46:04.331Z,100723.69
2022-12-08T23:48:31.011Z,100729.84
2022-12-08T23:50:57.530Z,100739.56
2022-12-08T23:53:23.966Z,100732.75
2022-12-08T23:55:50.588Z,100723.25
2022-12-08T23:58:17.085Z,100727.28
